首页
METAR-TAF:

METAR-TAF

机场 :

Mankato, 明尼蘇達州, 美国

纬度: 44-13N, 经度: 093-55W, 海拔: 311米

当前天气观测

该预报发布于1小时和7分钟前的07:56 UTC
风速5节,风向东转东南
温度 20°C
湿度 88%
气压 1018 hPa
能見度: 16.1公里
天空无云

METAR: KMKT 270756Z AUTO 12005KT 10SM CLR 20/18 A3005 RMK AO2 SLP170 T02000178

时间: 04:03 (09:03 UTC)

预报

该预报发布于3小时和43分钟前的05:20 UTC
预报有效从27日的 06点(UTC)到 28日的 06点(UTC)
风速6节,风向南转南东
能見度: 10公里
少量云层高于15000英尺
从 27日的 1000点(UTC)
风速5节,风向南转南东
能見度: 10公里
散云层高于8000英尺
多云层高于25000英尺
从 27日的 1500点(UTC)
风速8节,风向南转西南
能見度: 10公里
散云层高于6000英尺
阴天层高于9000英尺
附近有阵雨
短暂存在
从 27日的 16点(UTC)到 27日的 18点(UTC)
风速20节,风向西,有时为40节阵风
能見度: 1.2公里
多云层高于1500英尺, 积雨云.
雷暴, 雨, 轻雾
从 27日的 1900点(UTC)
风速9节,风向南转南东
能見度: 10公里
散云层高于2600英尺
多云层高于6000英尺
从 28日的 0100点(UTC)
风速6节,风向
能見度: 10公里
散云层高于5000英尺

TAF: KMKT 270520Z 2706/2806 16006KT P6SM FEW150 FM271000 16005KT P6SM SCT080 BKN250 FM271500 21008KT P6SM VCSH SCT060 OVC090 TEMPO 2716/2718 28020G40KT 3/4SM TSRA BR BKN015CB FM271900 15009KT P6SM SCT026 BKN060 FM280100 08006KT P6SM SCT050

超过4000个机场的气象观测和天气预报(METAR&TAF报告)。

可查询的气象台以黄色和红色小点在地图上表示。

将鼠标移到小点上方,可查看气象台名称。

然后点击查看天气观测和预报。

如需切换地图:点击带黑十字的绿色按钮放大地图;点击带横线的绿色按钮缩小地图;或者点击绿色箭头查看邻近地区的地图。


METAR-TAF: